createdAt,value
2022-10-04T00:02:06.427Z,2.40
2022-10-04T00:06:23.210Z,2.30
2022-10-04T00:10:38.533Z,2.47
2022-10-04T00:14:54.422Z,2.53
2022-10-04T00:19:27.851Z,2.25
2022-10-04T00:23:47.245Z,2.22
2022-10-04T00:28:28.081Z,2.50
2022-10-04T00:33:01.062Z,2.30
2022-10-04T00:37:15.896Z,2.60
2022-10-04T00:41:31.247Z,2.05
2022-10-04T00:45:49.968Z,2.30
2022-10-04T00:50:16.110Z,2.40
2022-10-04T00:54:36.278Z,2.47
2022-10-04T00:59:14.495Z,2.23
2022-10-04T01:03:38.575Z,2.20
2022-10-04T01:07:59.482Z,2.50
2022-10-04T01:12:23.872Z,2.30
2022-10-04T01:16:40.574Z,2.67
2022-10-04T01:21:01.294Z,2.20
2022-10-04T01:25:46.833Z,2.30
2022-10-04T01:30:04.248Z,2.30
2022-10-04T01:34:21.612Z,2.20
2022-10-04T01:38:37.869Z,2.60
2022-10-04T01:43:00.527Z,2.40
2022-10-04T01:47:20.509Z,2.20
2022-10-04T01:51:39.416Z,2.40
2022-10-04T01:55:59.493Z,2.42
2022-10-04T02:00:16.784Z,2.30
2022-10-04T02:04:34.725Z,2.22
2022-10-04T02:08:51.743Z,2.28
2022-10-04T02:13:09.866Z,2.30
2022-10-04T02:17:28.309Z,2.50
2022-10-04T02:21:43.435Z,2.15
2022-10-04T02:25:59.684Z,2.57
2022-10-04T02:30:15.468Z,2.40
2022-10-04T02:34:31.818Z,3.00
2022-10-04T02:38:52.708Z,2.83
2022-10-04T02:43:13.177Z,3.10
2022-10-04T02:47:30.444Z,3.40
2022-10-04T02:51:52.002Z,3.30
2022-10-04T02:56:07.246Z,3.40
2022-10-04T03:00:24.546Z,3.40
2022-10-04T03:04:41.228Z,3.80
2022-10-04T03:08:59.252Z,3.33
2022-10-04T03:13:16.369Z,3.33
2022-10-04T03:17:31.694Z,4.30
2022-10-04T03:21:51.573Z,4.20
2022-10-04T03:26:22.266Z,3.90
2022-10-04T03:30:45.326Z,4.20
2022-10-04T03:35:02.807Z,4.30
2022-10-04T03:39:24.282Z,4.40
2022-10-04T03:43:43.967Z,3.70
2022-10-04T03:48:05.032Z,4.18
2022-10-04T03:52:23.296Z,3.90
2022-10-04T03:56:38.577Z,3.83
2022-10-04T04:01:13.870Z,3.22
2022-10-04T04:05:31.778Z,3.45
2022-10-04T04:09:49.021Z,3.30
2022-10-04T04:14:08.674Z,3.35
2022-10-04T04:18:27.598Z,3.60
2022-10-04T04:22:46.639Z,4.00
2022-10-04T04:27:05.641Z,3.85
2022-10-04T04:31:24.239Z,3.03
2022-10-04T04:35:39.932Z,4.23
2022-10-04T04:39:56.732Z,3.15
2022-10-04T04:44:20.037Z,3.65
2022-10-04T04:48:34.747Z,3.13
2022-10-04T04:52:52.652Z,3.13
2022-10-04T04:57:08.258Z,3.40
2022-10-04T05:01:26.499Z,3.28
2022-10-04T05:05:46.573Z,3.93
2022-10-04T05:10:02.305Z,4.00
2022-10-04T05:14:22.280Z,3.58
2022-10-04T05:18:37.001Z,3.63
2022-10-04T05:22:53.013Z,3.80
2022-10-04T05:27:14.613Z,4.32
2022-10-04T05:31:38.763Z,3.80
2022-10-04T05:36:19.046Z,4.10
2022-10-04T05:40:43.347Z,4.20
2022-10-04T05:45:00.629Z,4.30
2022-10-04T05:49:19.586Z,4.07
2022-10-04T05:53:37.129Z,3.40
2022-10-04T05:58:07.639Z,3.15
2022-10-04T06:02:37.324Z,3.17
2022-10-04T06:06:59.043Z,3.00
2022-10-04T06:11:30.311Z,3.30
2022-10-04T06:16:09.730Z,2.97
2022-10-04T06:20:55.340Z,3.67
2022-10-04T06:25:18.727Z,2.72
2022-10-04T06:29:40.718Z,3.13
2022-10-04T06:34:14.977Z,2.90
2022-10-04T06:38:48.762Z,3.20
2022-10-04T06:43:18.170Z,2.83
2022-10-04T06:47:49.133Z,2.90
2022-10-04T06:52:28.425Z,2.67
2022-10-04T06:57:12.568Z,3.05
2022-10-04T07:01:31.254Z,2.60
2022-10-04T07:05:50.755Z,2.80
2022-10-04T07:10:24.721Z,2.22
2022-10-04T07:14:46.135Z,2.70
2022-10-04T07:19:09.698Z,2.60
2022-10-04T07:23:28.651Z,3.17
2022-10-04T07:28:12.959Z,2.60
2022-10-04T07:32:34.842Z,2.73
2022-10-04T07:36:56.034Z,2.50
2022-10-04T07:41:20.222Z,2.90
2022-10-04T07:45:40.114Z,2.65
2022-10-04T07:49:59.040Z,2.50
2022-10-04T07:54:21.659Z,2.50
2022-10-04T07:58:45.949Z,2.40
2022-10-04T08:03:16.852Z,2.70
2022-10-04T08:07:46.298Z,2.72
2022-10-04T08:12:09.514Z,2.53
2022-10-04T08:16:35.540Z,2.30
2022-10-04T08:20:56.178Z,2.10
2022-10-04T08:25:19.728Z,2.63
2022-10-04T08:29:53.507Z,2.70
2022-10-04T08:34:22.415Z,2.93
2022-10-04T08:38:45.105Z,2.70
2022-10-04T08:43:27.952Z,2.83
2022-10-04T08:48:24.670Z,2.40
2022-10-04T08:52:58.784Z,2.40
2022-10-04T08:57:36.159Z,2.35
2022-10-04T09:02:36.374Z,2.50
2022-10-04T09:07:04.951Z,2.22
2022-10-04T09:11:46.457Z,2.97
2022-10-04T09:16:10.333Z,2.60
2022-10-04T09:20:43.467Z,2.40
2022-10-04T09:25:22.842Z,3.00
2022-10-04T09:29:53.070Z,2.55
2022-10-04T09:34:17.445Z,2.40
2022-10-04T09:39:28.536Z,3.03
2022-10-04T09:44:17.603Z,2.83
2022-10-04T09:48:38.105Z,3.10
2022-10-04T09:52:59.602Z,3.00
2022-10-04T09:57:30.271Z,2.50
2022-10-04T10:02:02.110Z,2.92
2022-10-04T10:06:55.490Z,2.43
2022-10-04T10:11:36.221Z,2.85
2022-10-04T10:16:00.454Z,2.65
2022-10-04T10:20:39.773Z,2.70
2022-10-04T10:25:13.953Z,3.03
2022-10-04T10:29:48.483Z,2.90
2022-10-04T10:34:29.158Z,3.17
2022-10-04T10:38:55.125Z,2.30
2022-10-04T10:43:37.948Z,2.45
2022-10-04T10:47:59.777Z,2.50
2022-10-04T10:52:43.128Z,2.40
2022-10-04T10:57:10.504Z,2.50
2022-10-04T11:01:53.347Z,2.45
2022-10-04T11:06:25.280Z,2.63
2022-10-04T11:11:04.436Z,2.35
2022-10-04T11:15:55.037Z,2.15
2022-10-04T11:20:36.910Z,1.83
2022-10-04T11:25:19.216Z,2.20
2022-10-04T11:29:56.406Z,2.15
2022-10-04T11:34:30.862Z,2.47
2022-10-04T11:39:26.352Z,2.23
2022-10-04T11:44:02.313Z,2.60
2022-10-04T11:48:33.142Z,2.60
2022-10-04T11:53:28.796Z,2.70
2022-10-04T11:57:47.285Z,2.50
2022-10-04T12:02:44.265Z,2.83
2022-10-04T12:07:26.586Z,1.97
2022-10-04T12:12:38.307Z,2.20
2022-10-04T12:17:38.379Z,1.90
2022-10-04T12:22:07.766Z,2.33
2022-10-04T12:26:43.538Z,2.10
2022-10-04T12:31:20.237Z,1.90
2022-10-04T12:35:57.761Z,2.30
2022-10-04T12:40:29.886Z,2.37
2022-10-04T12:45:00.408Z,1.90
2022-10-04T12:49:28.147Z,2.05
2022-10-04T12:53:54.511Z,2.03
2022-10-04T12:58:24.027Z,2.05
2022-10-04T13:03:05.172Z,2.42
2022-10-04T13:07:32.690Z,2.50
2022-10-04T13:12:01.934Z,2.30
2022-10-04T13:21:04.996Z,2.50
2022-10-04T13:25:56.316Z,2.40
2022-10-04T13:30:23.604Z,2.47
2022-10-04T13:34:46.329Z,2.03
2022-10-04T13:39:29.430Z,1.90
2022-10-04T13:44:08.673Z,1.92
2022-10-04T13:48:42.340Z,1.98
2022-10-04T13:53:23.459Z,2.25
2022-10-04T13:57:44.428Z,1.80
2022-10-04T14:02:23.273Z,2.00
2022-10-04T14:07:18.675Z,2.10
2022-10-04T14:12:15.694Z,2.10
2022-10-04T14:17:01.106Z,2.00
2022-10-04T14:21:35.901Z,1.65
2022-10-04T14:26:11.603Z,2.10
2022-10-04T14:30:33.212Z,1.77
2022-10-04T14:35:00.718Z,1.70
2022-10-04T14:39:35.114Z,1.65
2022-10-04T14:44:28.942Z,1.80
2022-10-04T14:49:03.743Z,1.95
2022-10-04T14:53:29.563Z,2.00
2022-10-04T14:58:00.044Z,2.30
2022-10-04T15:02:50.263Z,2.03
2022-10-04T15:07:18.881Z,1.85
2022-10-04T15:11:57.521Z,1.90
2022-10-04T15:16:33.673Z,1.80
2022-10-04T15:20:54.500Z,1.60
2022-10-04T15:25:40.854Z,1.73
2022-10-04T15:30:04.525Z,1.90
2022-10-04T15:34:33.587Z,2.17
2022-10-04T15:38:57.341Z,1.83
2022-10-04T15:43:25.633Z,2.17
2022-10-04T15:47:58.847Z,2.00
2022-10-04T15:52:21.980Z,2.05
2022-10-04T15:56:46.598Z,1.80
2022-10-04T16:01:36.318Z,2.13
2022-10-04T16:06:15.234Z,2.00
2022-10-04T16:11:03.344Z,2.00
2022-10-04T16:15:40.246Z,2.43
2022-10-04T16:20:35.200Z,2.40
2022-10-04T16:25:44.186Z,2.60
2022-10-04T16:30:27.910Z,2.60
2022-10-04T16:35:05.167Z,3.20
2022-10-04T16:40:12.197Z,2.70
2022-10-04T16:44:57.167Z,2.80
2022-10-04T16:49:41.246Z,2.50
2022-10-04T16:54:36.154Z,2.95
2022-10-04T16:59:07.454Z,3.08
2022-10-04T17:03:44.191Z,3.40
2022-10-04T17:08:39.133Z,3.05
2022-10-04T17:13:31.144Z,3.08
2022-10-04T17:18:15.215Z,3.20
2022-10-04T17:23:02.203Z,3.00
2022-10-04T17:28:00.179Z,2.95
2022-10-04T17:32:33.713Z,3.30
2022-10-04T17:37:11.141Z,2.93
2022-10-04T17:42:03.123Z,3.20
2022-10-04T17:46:43.395Z,4.03
2022-10-04T17:51:57.122Z,4.47
2022-10-04T17:56:44.439Z,4.20
2022-10-04T18:01:30.191Z,3.30
2022-10-04T18:06:08.104Z,3.40
2022-10-04T18:10:41.039Z,3.05
2022-10-04T18:15:28.181Z,2.83
2022-10-04T18:20:16.199Z,2.95
2022-10-04T18:24:51.087Z,2.97
2022-10-04T18:29:28.108Z,3.00
2022-10-04T18:34:06.096Z,2.95
2022-10-04T18:38:44.101Z,2.80
2022-10-04T18:43:34.085Z,2.85
2022-10-04T18:48:12.082Z,3.20
2022-10-04T18:52:57.070Z,3.27
2022-10-04T18:58:06.154Z,3.22
2022-10-04T19:02:47.525Z,3.72
2022-10-04T19:07:19.062Z,3.60
2022-10-04T19:12:00.056Z,3.90
2022-10-04T19:16:45.405Z,3.13
2022-10-04T19:21:31.102Z,3.25
2022-10-04T19:31:10.125Z,3.50
2022-10-04T19:36:08.076Z,3.20
2022-10-04T19:40:51.098Z,3.73
2022-10-04T19:45:40.106Z,3.95
2022-10-04T19:50:18.461Z,3.40
2022-10-04T19:54:54.049Z,5.25
2022-10-04T19:59:33.019Z,3.40
2022-10-04T20:04:31.035Z,4.10
2022-10-04T20:09:30.024Z,3.90
2022-10-04T20:14:51.038Z,3.70
2022-10-04T20:19:29.013Z,3.65
2022-10-04T20:24:05.021Z,3.90
2022-10-04T20:28:50.035Z,4.00
2022-10-04T20:33:19.251Z,3.22
2022-10-04T20:38:32.438Z,3.90
2022-10-04T20:43:36.022Z,4.00
2022-10-04T20:48:19.042Z,4.33
2022-10-04T20:52:57.993Z,4.18
2022-10-04T20:57:30.983Z,3.63
2022-10-04T21:02:19.069Z,3.70
2022-10-04T21:07:00.998Z,3.75
2022-10-04T21:11:35.987Z,3.95
2022-10-04T21:16:02.985Z,4.07
2022-10-04T21:20:58.049Z,3.90
2022-10-04T21:25:39.983Z,3.88
2022-10-04T21:30:14.959Z,3.85
2022-10-04T21:34:53.589Z,3.70
2022-10-04T21:39:27.980Z,3.88
2022-10-04T21:44:02.956Z,3.90
2022-10-04T21:48:36.945Z,3.37
2022-10-04T21:53:09.981Z,3.53
2022-10-04T21:57:43.975Z,3.40
2022-10-04T22:02:19.001Z,3.50
2022-10-04T22:06:52.970Z,3.03
2022-10-04T22:11:26.011Z,3.60
2022-10-04T22:16:00.011Z,3.70
2022-10-04T22:20:28.658Z,3.70
2022-10-04T22:25:01.959Z,3.65
2022-10-04T22:29:37.915Z,3.78
2022-10-04T22:34:11.964Z,3.73
2022-10-04T22:38:46.965Z,3.60
2022-10-04T22:43:27.962Z,3.50
2022-10-04T22:48:03.930Z,2.93
2022-10-04T22:52:39.927Z,2.97
2022-10-04T22:57:16.919Z,2.35
2022-10-04T23:01:44.090Z,3.20
2022-10-04T23:06:20.954Z,2.60
2022-10-04T23:10:54.948Z,2.25
2022-10-04T23:15:29.952Z,2.60
2022-10-04T23:20:05.918Z,2.53
2022-10-04T23:24:38.920Z,3.13
2022-10-04T23:29:13.923Z,3.00
2022-10-04T23:33:48.918Z,2.90
2022-10-04T23:38:27.885Z,2.90
2022-10-04T23:42:57.490Z,3.13
2022-10-04T23:47:32.881Z,3.28
2022-10-04T23:52:10.903Z,2.70
2022-10-04T23:56:45.166Z,2.92
